createdAt,value
2017-09-09T00:02:04.832Z,12.90
2017-09-09T00:04:32.415Z,13.00
2017-09-09T00:06:59.956Z,13.00
2017-09-09T00:09:27.546Z,13.10
2017-09-09T00:11:55.096Z,13.10
2017-09-09T00:14:22.712Z,13.10
2017-09-09T00:16:51.031Z,13.00
2017-09-09T00:19:18.612Z,13.00
2017-09-09T00:21:46.199Z,13.00
2017-09-09T00:24:13.791Z,13.00
2017-09-09T00:26:41.315Z,13.00
2017-09-09T00:29:08.879Z,13.00
2017-09-09T00:31:37.195Z,13.00
2017-09-09T00:34:04.771Z,13.00
2017-09-09T00:36:32.310Z,12.90
2017-09-09T00:38:59.872Z,13.00
2017-09-09T00:41:27.389Z,12.90
2017-09-09T00:43:54.966Z,12.80
2017-09-09T00:46:22.519Z,12.80
2017-09-09T00:48:50.115Z,12.80
2017-09-09T00:51:18.535Z,12.90
2017-09-09T00:53:46.066Z,12.90
2017-09-09T00:56:13.642Z,12.80
2017-09-09T00:58:41.159Z,12.80
2017-09-09T01:01:08.727Z,12.80
2017-09-09T01:03:37.022Z,12.80
2017-09-09T01:06:04.592Z,12.80
2017-09-09T01:08:32.118Z,12.80
2017-09-09T01:10:59.681Z,12.80
2017-09-09T01:13:27.202Z,12.80
2017-09-09T01:15:54.800Z,12.80
2017-09-09T01:18:22.355Z,12.80
2017-09-09T01:20:50.020Z,12.80
2017-09-09T01:23:17.594Z,12.80
2017-09-09T01:25:45.179Z,12.90
2017-09-09T01:28:12.711Z,12.90
2017-09-09T01:30:40.285Z,12.90
2017-09-09T01:33:07.811Z,13.00
2017-09-09T01:35:35.376Z,13.00
2017-09-09T01:38:02.903Z,12.90
2017-09-09T01:40:30.467Z,13.00
2017-09-09T01:42:58.758Z,13.00
2017-09-09T01:45:26.351Z,13.00
2017-09-09T01:47:53.914Z,13.00
2017-09-09T01:50:22.277Z,13.10
2017-09-09T01:52:49.885Z,13.10
2017-09-09T01:55:17.959Z,13.10
2017-09-09T01:57:45.499Z,13.10
2017-09-09T02:00:13.054Z,13.10
2017-09-09T02:02:40.583Z,13.30
2017-09-09T02:05:08.147Z,13.30
2017-09-09T02:07:35.671Z,13.30
2017-09-09T02:10:03.197Z,13.40
2017-09-09T02:12:30.764Z,13.40
2017-09-09T02:14:58.303Z,13.40
2017-09-09T02:17:25.883Z,13.50
2017-09-09T02:19:53.444Z,13.50
2017-09-09T02:22:21.059Z,13.60
2017-09-09T02:24:48.622Z,13.60
2017-09-09T02:27:16.976Z,13.80
2017-09-09T02:29:44.516Z,13.80
2017-09-09T02:32:12.079Z,13.90
2017-09-09T02:34:40.413Z,13.90
2017-09-09T02:37:07.978Z,13.90
2017-09-09T02:39:35.539Z,14.00
2017-09-09T02:42:03.894Z,14.20
2017-09-09T02:44:31.504Z,14.10
2017-09-09T02:46:59.108Z,14.40
2017-09-09T02:49:26.667Z,14.50
2017-09-09T02:51:54.239Z,14.60
2017-09-09T02:54:21.920Z,14.60
2017-09-09T02:56:49.524Z,14.60
2017-09-09T02:59:17.172Z,14.70
2017-09-09T03:01:44.743Z,14.80
2017-09-09T03:04:12.492Z,14.90
2017-09-09T03:06:40.844Z,15.00
2017-09-09T03:09:08.403Z,14.90
2017-09-09T03:11:36.710Z,15.20
2017-09-09T03:14:04.264Z,15.20
2017-09-09T03:16:31.805Z,15.30
2017-09-09T03:18:59.402Z,15.20
2017-09-09T03:21:26.950Z,15.30
2017-09-09T03:23:54.521Z,15.30
2017-09-09T03:26:22.831Z,15.50
2017-09-09T03:28:50.506Z,15.40
2017-09-09T03:31:18.133Z,15.60
2017-09-09T03:33:45.749Z,15.70
2017-09-09T03:36:13.484Z,15.80
2017-09-09T03:38:41.095Z,15.80
2017-09-09T03:41:08.639Z,15.80
2017-09-09T03:43:36.445Z,15.90
2017-09-09T03:46:05.040Z,16.00
2017-09-09T03:48:32.748Z,16.00
2017-09-09T03:51:00.332Z,16.10
2017-09-09T03:53:27.884Z,16.10
2017-09-09T03:55:55.516Z,16.10
2017-09-09T03:58:23.095Z,16.20
2017-09-09T04:00:50.693Z,16.20
2017-09-09T04:03:18.364Z,16.20
2017-09-09T04:05:45.931Z,16.10
2017-09-09T04:08:13.457Z,16.10
2017-09-09T04:10:41.787Z,16.10
2017-09-09T04:13:09.314Z,16.10
2017-09-09T04:15:37.643Z,16.10
2017-09-09T04:18:05.180Z,16.10
2017-09-09T04:20:32.746Z,16.10
2017-09-09T04:23:00.271Z,16.00
2017-09-09T04:25:27.910Z,16.00
2017-09-09T04:27:55.459Z,16.00
2017-09-09T04:30:23.027Z,16.00
2017-09-09T04:32:51.357Z,16.10
2017-09-09T04:35:18.963Z,16.10
2017-09-09T04:37:46.508Z,16.20
2017-09-09T04:40:14.835Z,16.30
2017-09-09T04:42:42.364Z,16.30
2017-09-09T04:45:09.919Z,16.30
2017-09-09T04:47:37.453Z,16.40
2017-09-09T04:50:05.033Z,16.40
2017-09-09T04:52:32.560Z,16.40
2017-09-09T04:55:00.147Z,16.40
2017-09-09T04:57:27.685Z,16.40
2017-09-09T04:59:55.264Z,16.50
2017-09-09T05:02:22.816Z,16.40
2017-09-09T05:04:50.419Z,16.50
2017-09-09T05:07:17.981Z,16.50
2017-09-09T05:09:45.547Z,16.50
2017-09-09T05:12:13.081Z,16.50
2017-09-09T05:14:40.644Z,16.60
2017-09-09T05:17:08.162Z,16.60
2017-09-09T05:19:35.728Z,16.60
2017-09-09T05:22:03.256Z,16.60
2017-09-09T05:24:30.823Z,16.60
2017-09-09T05:26:58.364Z,16.50
2017-09-09T05:29:25.954Z,16.60
2017-09-09T05:31:53.507Z,16.60
2017-09-09T05:34:21.090Z,16.60
2017-09-09T05:36:48.680Z,16.70
2017-09-09T05:39:16.207Z,16.80
2017-09-09T05:41:43.764Z,16.70
2017-09-09T05:44:11.360Z,16.80
2017-09-09T05:46:38.931Z,16.80
2017-09-09T05:49:06.508Z,16.70
2017-09-09T05:51:34.846Z,16.80
2017-09-09T05:54:02.561Z,16.80
2017-09-09T05:56:30.157Z,16.80
2017-09-09T05:58:57.696Z,16.80
2017-09-09T06:01:25.270Z,16.90
2017-09-09T06:03:53.572Z,16.80
2017-09-09T06:06:21.157Z,16.80
2017-09-09T06:08:49.596Z,16.80
2017-09-09T06:11:17.194Z,16.80
2017-09-09T06:13:44.781Z,16.70
2017-09-09T06:16:12.365Z,16.70
2017-09-09T06:18:40.058Z,16.50
2017-09-09T06:21:07.622Z,16.30
2017-09-09T06:23:35.248Z,16.30
2017-09-09T06:26:02.872Z,16.20
2017-09-09T06:28:31.251Z,16.10
2017-09-09T06:30:58.886Z,16.10
2017-09-09T06:33:27.233Z,16.10
2017-09-09T06:35:54.814Z,16.10
2017-09-09T06:38:22.446Z,16.00
2017-09-09T06:40:50.850Z,16.00
2017-09-09T06:43:18.431Z,16.00
2017-09-09T06:45:46.334Z,15.90
2017-09-09T06:48:14.733Z,15.90
2017-09-09T06:50:44.192Z,15.90
2017-09-09T06:53:11.755Z,15.90
2017-09-09T06:55:39.330Z,16.00
2017-09-09T06:58:06.907Z,15.90
2017-09-09T07:00:34.608Z,15.90
2017-09-09T07:03:02.196Z,15.80
2017-09-09T07:05:30.523Z,16.00
2017-09-09T07:07:58.055Z,16.00
2017-09-09T07:10:25.690Z,16.00
2017-09-09T07:12:53.288Z,15.90
2017-09-09T07:15:21.729Z,15.90
2017-09-09T07:17:49.280Z,15.90
2017-09-09T07:20:16.894Z,15.80
2017-09-09T07:22:44.492Z,15.80
2017-09-09T07:25:12.831Z,15.80
2017-09-09T07:27:40.419Z,15.80
2017-09-09T07:30:08.015Z,15.80
2017-09-09T07:32:35.609Z,15.70
2017-09-09T07:35:03.263Z,15.70
2017-09-09T07:37:30.945Z,15.70
2017-09-09T07:39:58.506Z,15.80
2017-09-09T07:42:26.034Z,15.60
2017-09-09T07:44:53.678Z,15.60
2017-09-09T07:47:21.254Z,15.40
2017-09-09T07:49:49.629Z,15.40
2017-09-09T07:52:18.032Z,15.40
2017-09-09T07:54:45.607Z,15.30
2017-09-09T07:57:14.070Z,15.40
2017-09-09T07:59:41.693Z,15.40
2017-09-09T08:02:09.260Z,15.40
2017-09-09T08:07:11.840Z,15.40
2017-09-09T08:09:39.405Z,15.60
2017-09-09T08:12:07.831Z,15.60
2017-09-09T08:14:35.401Z,15.70
2017-09-09T08:17:02.970Z,15.80
2017-09-09T08:19:31.333Z,15.90
2017-09-09T08:21:59.724Z,15.90
2017-09-09T08:24:27.269Z,15.90
2017-09-09T08:26:54.869Z,16.00
2017-09-09T08:29:22.474Z,16.00
2017-09-09T08:35:21.397Z,16.00
2017-09-09T08:37:49.056Z,16.00
2017-09-09T08:40:17.373Z,16.10
2017-09-09T08:42:44.950Z,16.10
2017-09-09T08:45:12.541Z,16.20
2017-09-09T08:47:40.143Z,16.20
2017-09-09T08:50:07.711Z,16.20
2017-09-09T08:52:36.134Z,16.40
2017-09-09T08:55:03.746Z,16.40
2017-09-09T08:57:31.399Z,16.40
2017-09-09T08:59:59.930Z,16.50
2017-09-09T09:02:28.321Z,16.60
2017-09-09T09:04:55.937Z,16.60
2017-09-09T09:07:24.269Z,16.80
2017-09-09T09:09:51.901Z,16.80
2017-09-09T09:12:19.494Z,16.70
2017-09-09T09:14:47.903Z,17.20
2017-09-09T09:17:15.538Z,17.10
2017-09-09T09:19:43.095Z,17.30
2017-09-09T09:22:10.679Z,17.60
2017-09-09T09:24:38.270Z,17.80
2017-09-09T09:27:05.791Z,18.00
2017-09-09T09:29:34.218Z,18.10
2017-09-09T09:32:01.816Z,18.00
2017-09-09T09:34:29.417Z,18.10
2017-09-09T09:36:56.991Z,18.10
2017-09-09T09:39:25.414Z,18.30
2017-09-09T09:41:53.020Z,18.30
2017-09-09T09:44:20.687Z,18.30
2017-09-09T09:46:48.309Z,18.30
2017-09-09T09:49:15.958Z,18.20
2017-09-09T09:51:44.293Z,17.70
2017-09-09T09:54:11.913Z,17.70
2017-09-09T09:56:39.493Z,17.40
2017-09-09T09:59:09.009Z,17.20
2017-09-09T10:01:36.594Z,17.20
2017-09-09T10:04:04.273Z,17.00
2017-09-09T10:06:31.845Z,17.30
2017-09-09T10:08:59.438Z,17.60
2017-09-09T10:11:27.025Z,17.80
2017-09-09T10:13:55.393Z,17.90
2017-09-09T10:16:23.724Z,18.10
2017-09-09T10:18:51.303Z,18.10
2017-09-09T10:21:19.636Z,18.50
2017-09-09T10:23:47.772Z,18.50
2017-09-09T10:26:15.354Z,18.50
2017-09-09T10:28:43.002Z,18.60
2017-09-09T10:31:11.323Z,18.80
2017-09-09T10:33:38.978Z,18.80
2017-09-09T10:36:06.562Z,18.90
2017-09-09T10:38:34.947Z,18.90
2017-09-09T10:41:03.479Z,18.90
2017-09-09T10:43:31.544Z,18.80
2017-09-09T10:45:59.909Z,19.10
2017-09-09T10:48:28.276Z,19.30
2017-09-09T10:50:55.907Z,19.30
2017-09-09T10:53:23.475Z,19.30
2017-09-09T10:55:51.779Z,19.70
2017-09-09T10:58:19.448Z,19.70
2017-09-09T11:00:47.041Z,19.70
2017-09-09T11:03:14.625Z,19.50
2017-09-09T11:05:42.199Z,19.40
2017-09-09T11:08:09.836Z,19.50
2017-09-09T11:10:37.405Z,19.40
2017-09-09T11:13:05.044Z,19.50
2017-09-09T11:15:32.617Z,19.60
2017-09-09T11:18:00.942Z,19.60
2017-09-09T11:20:28.485Z,19.60
2017-09-09T11:22:56.129Z,19.60
2017-09-09T11:25:23.721Z,19.70
2017-09-09T11:27:51.386Z,19.70
2017-09-09T11:30:18.927Z,19.70
2017-09-09T11:32:46.468Z,19.80
2017-09-09T11:35:14.035Z,20.00
2017-09-09T11:37:41.562Z,20.10
2017-09-09T11:40:09.999Z,20.10
2017-09-09T11:42:37.612Z,20.00
2017-09-09T11:45:05.264Z,19.80
2017-09-09T11:47:32.851Z,19.80
2017-09-09T11:50:01.223Z,19.60
2017-09-09T11:52:29.607Z,19.50
2017-09-09T11:54:57.228Z,19.50
2017-09-09T11:57:24.854Z,19.70
2017-09-09T11:59:53.273Z,19.80
2017-09-09T12:02:21.630Z,20.00
2017-09-09T12:04:49.322Z,20.00
2017-09-09T12:07:16.931Z,20.20
2017-09-09T12:09:44.508Z,20.20
2017-09-09T12:12:12.107Z,20.20
2017-09-09T12:14:39.719Z,20.30
2017-09-09T12:17:07.333Z,20.30
2017-09-09T12:19:34.924Z,20.30
2017-09-09T12:22:02.503Z,20.20
2017-09-09T12:24:30.064Z,20.30
2017-09-09T12:26:57.638Z,20.50
2017-09-09T12:29:25.236Z,20.50
2017-09-09T12:31:53.628Z,20.40
2017-09-09T12:34:21.271Z,20.40
2017-09-09T12:36:48.878Z,20.50
2017-09-09T12:39:16.517Z,20.40
2017-09-09T12:41:44.136Z,20.50
2017-09-09T12:44:12.096Z,20.50
2017-09-09T12:46:39.680Z,20.40
2017-09-09T12:49:07.310Z,20.10
2017-09-09T12:51:35.664Z,20.00
2017-09-09T12:54:03.292Z,20.00
2017-09-09T12:56:30.901Z,19.80
2017-09-09T12:58:58.486Z,19.80
2017-09-09T13:01:26.126Z,19.70
2017-09-09T13:03:53.796Z,19.70
2017-09-09T13:06:21.335Z,19.80
2017-09-09T13:08:48.951Z,19.80
2017-09-09T13:11:16.546Z,19.80
2017-09-09T13:13:44.119Z,19.70
2017-09-09T13:16:12.432Z,19.50
2017-09-09T13:18:40.008Z,19.50
2017-09-09T13:21:07.595Z,19.30
2017-09-09T13:23:35.288Z,19.30
2017-09-09T13:26:02.875Z,19.40
2017-09-09T13:28:30.423Z,19.50
2017-09-09T13:30:58.778Z,19.50
2017-09-09T13:33:26.351Z,19.50
2017-09-09T13:35:54.727Z,19.70
2017-09-09T13:38:23.188Z,20.10
2017-09-09T13:40:50.742Z,20.10
2017-09-09T13:43:18.275Z,20.20
2017-09-09T13:45:45.881Z,20.20
2017-09-09T13:48:14.212Z,19.90
2017-09-09T13:50:41.796Z,19.90
2017-09-09T13:53:09.345Z,19.80
2017-09-09T13:55:37.697Z,19.20
2017-09-09T13:58:06.053Z,18.80
2017-09-09T14:00:34.426Z,18.80
2017-09-09T14:03:02.810Z,18.80
2017-09-09T14:05:31.134Z,18.90
2017-09-09T14:07:58.685Z,18.80
2017-09-09T14:10:26.294Z,19.00
2017-09-09T14:12:53.856Z,19.10
2017-09-09T14:15:21.440Z,19.10
2017-09-09T14:17:49.785Z,19.00
2017-09-09T14:20:17.370Z,18.90
2017-09-09T14:22:44.905Z,18.90
2017-09-09T14:25:13.268Z,18.60
2017-09-09T14:27:41.579Z,18.20
2017-09-09T14:30:09.144Z,18.20
2017-09-09T14:32:36.712Z,17.90
2017-09-09T14:35:05.024Z,17.80
2017-09-09T14:37:32.602Z,17.80
2017-09-09T14:40:00.151Z,17.90
2017-09-09T14:42:27.715Z,17.90
2017-09-09T14:44:56.052Z,17.80
2017-09-09T14:47:23.699Z,17.80
2017-09-09T14:49:51.398Z,17.80
2017-09-09T14:52:19.023Z,17.60
2017-09-09T14:54:46.593Z,17.60
2017-09-09T14:57:14.164Z,17.60
2017-09-09T14:59:41.727Z,17.50
2017-09-09T15:02:09.385Z,17.50
2017-09-09T15:04:36.966Z,17.40
2017-09-09T15:07:04.644Z,17.20
2017-09-09T15:09:32.272Z,17.20
2017-09-09T15:11:59.867Z,17.10
2017-09-09T15:14:27.484Z,17.00
2017-09-09T15:16:55.112Z,16.80
2017-09-09T15:19:22.682Z,16.80
2017-09-09T15:21:50.975Z,16.70
2017-09-09T15:24:18.582Z,16.70
2017-09-09T15:26:46.154Z,16.80
2017-09-09T15:29:13.678Z,16.80
2017-09-09T15:31:41.334Z,16.90
2017-09-09T15:34:09.632Z,16.80
2017-09-09T15:36:38.015Z,16.70
2017-09-09T15:39:05.546Z,16.70
2017-09-09T15:41:33.882Z,16.70
2017-09-09T15:44:01.426Z,16.70
2017-09-09T15:46:29.007Z,16.60
2017-09-09T15:48:57.299Z,16.60
2017-09-09T15:51:24.863Z,16.60
2017-09-09T15:53:52.468Z,16.60
2017-09-09T15:56:20.009Z,16.60
2017-09-09T15:58:47.572Z,16.60
2017-09-09T16:01:15.108Z,16.40
2017-09-09T16:03:42.685Z,16.30
2017-09-09T16:06:10.238Z,16.20
2017-09-09T16:08:38.567Z,16.10
2017-09-09T16:11:06.134Z,16.10
2017-09-09T16:13:33.735Z,16.10
2017-09-09T16:16:02.064Z,16.00
2017-09-09T16:18:29.613Z,16.00
2017-09-09T16:20:57.207Z,16.00
2017-09-09T16:23:24.747Z,15.90
2017-09-09T16:25:52.373Z,15.80
2017-09-09T16:28:19.987Z,15.70
2017-09-09T16:30:47.555Z,15.70
2017-09-09T16:33:15.096Z,15.80
2017-09-09T16:35:42.678Z,15.60
2017-09-09T16:38:10.236Z,15.60
2017-09-09T16:40:37.824Z,15.50
2017-09-09T16:43:05.368Z,15.60
2017-09-09T16:45:32.982Z,15.50
2017-09-09T16:48:00.585Z,15.50
2017-09-09T16:50:28.207Z,15.50
2017-09-09T16:52:55.806Z,15.30
2017-09-09T16:55:23.387Z,15.40
2017-09-09T16:57:50.999Z,15.30
2017-09-09T17:00:18.555Z,15.30
2017-09-09T17:02:46.146Z,15.20
2017-09-09T17:05:14.133Z,15.20
2017-09-09T17:07:41.724Z,15.10
2017-09-09T17:10:09.295Z,15.10
2017-09-09T17:12:36.823Z,15.10
2017-09-09T17:15:04.403Z,14.90
2017-09-09T17:17:31.948Z,14.80
2017-09-09T17:20:00.319Z,14.70
2017-09-09T17:22:28.632Z,14.70
2017-09-09T17:24:56.478Z,14.60
2017-09-09T17:27:24.024Z,14.60
2017-09-09T17:29:51.632Z,14.60
2017-09-09T17:32:19.173Z,14.60
2017-09-09T17:34:46.739Z,14.50
2017-09-09T17:37:14.291Z,14.40
2017-09-09T17:39:41.875Z,14.40
2017-09-09T17:42:09.423Z,14.30
2017-09-09T17:44:37.000Z,14.20
2017-09-09T17:47:04.527Z,14.20
2017-09-09T17:49:32.902Z,14.10
2017-09-09T17:52:01.233Z,14.10
2017-09-09T17:54:28.833Z,14.10
2017-09-09T17:56:56.371Z,14.00
2017-09-09T17:59:23.955Z,14.10
2017-09-09T18:01:51.568Z,14.10
2017-09-09T18:04:19.141Z,14.00
2017-09-09T18:06:46.698Z,13.90
2017-09-09T18:09:15.032Z,14.00
2017-09-09T18:11:42.570Z,13.90
2017-09-09T18:14:10.202Z,13.90
2017-09-09T18:16:37.776Z,13.90
2017-09-09T18:19:05.320Z,13.90
2017-09-09T18:21:32.990Z,13.80
2017-09-09T18:24:00.515Z,13.70
2017-09-09T18:26:28.071Z,13.80
2017-09-09T18:28:55.598Z,13.70
2017-09-09T18:31:23.167Z,13.70
2017-09-09T18:33:50.740Z,13.70
2017-09-09T18:36:19.077Z,13.80
2017-09-09T18:38:47.381Z,13.80
2017-09-09T18:41:15.711Z,13.70
2017-09-09T18:43:43.247Z,13.70
2017-09-09T18:46:10.856Z,13.70
2017-09-09T18:48:38.394Z,13.70
2017-09-09T18:51:05.969Z,13.60
2017-09-09T18:53:33.500Z,13.60
2017-09-09T18:56:01.062Z,13.60
2017-09-09T18:58:28.594Z,13.60
2017-09-09T19:00:56.254Z,13.40
2017-09-09T19:03:23.775Z,13.60
2017-09-09T19:05:51.355Z,13.60
2017-09-09T19:08:18.894Z,13.50
2017-09-09T19:10:46.462Z,13.50
2017-09-09T19:13:13.988Z,13.50
2017-09-09T19:15:41.571Z,13.60
2017-09-09T19:18:09.880Z,13.50
2017-09-09T19:20:37.454Z,13.50
2017-09-09T19:23:04.979Z,13.50
2017-09-09T19:25:32.516Z,13.60
2017-09-09T19:28:00.094Z,13.60
2017-09-09T19:30:27.645Z,13.50
2017-09-09T19:32:55.219Z,13.60
2017-09-09T19:35:22.807Z,13.60
2017-09-09T19:37:50.370Z,13.50
2017-09-09T19:40:17.898Z,13.60
2017-09-09T19:42:45.505Z,13.60
2017-09-09T19:45:13.073Z,13.50
2017-09-09T19:47:40.652Z,13.60
2017-09-09T19:50:08.195Z,13.60
2017-09-09T19:52:35.828Z,13.50
2017-09-09T19:55:03.355Z,13.60
2017-09-09T19:57:30.947Z,13.70
2017-09-09T19:59:59.259Z,13.50
2017-09-09T20:02:26.846Z,13.50
2017-09-09T20:04:54.393Z,13.60
2017-09-09T20:07:21.990Z,13.70
2017-09-09T20:09:49.581Z,13.70
2017-09-09T20:12:17.184Z,13.70
2017-09-09T20:14:44.717Z,13.70
2017-09-09T20:17:12.279Z,13.80
2017-09-09T20:19:39.825Z,13.70
2017-09-09T20:22:07.398Z,13.60
2017-09-09T20:24:35.248Z,13.60
2017-09-09T20:27:02.887Z,13.70
2017-09-09T20:29:30.430Z,13.60
2017-09-09T20:31:58.000Z,13.50
2017-09-09T20:34:25.564Z,13.60
2017-09-09T20:36:53.911Z,13.70
2017-09-09T20:39:21.461Z,13.70
2017-09-09T20:41:49.075Z,13.80
2017-09-09T20:44:16.627Z,13.70
2017-09-09T20:46:44.195Z,13.70
2017-09-09T20:49:11.731Z,13.70
2017-09-09T20:51:39.307Z,13.70
2017-09-09T20:54:07.632Z,13.50
2017-09-09T20:56:35.164Z,13.50
2017-09-09T20:59:02.752Z,13.50
2017-09-09T21:01:31.073Z,13.40
2017-09-09T21:03:58.640Z,13.40
2017-09-09T21:06:26.212Z,13.50
2017-09-09T21:08:54.574Z,13.40
2017-09-09T21:11:22.137Z,13.40
2017-09-09T21:13:49.756Z,13.40
2017-09-09T21:16:18.078Z,13.40
2017-09-09T21:18:45.653Z,13.40
2017-09-09T21:21:13.195Z,13.30
2017-09-09T21:23:41.756Z,13.20
2017-09-09T21:26:09.287Z,13.10
2017-09-09T21:28:36.867Z,13.00
2017-09-09T21:31:04.403Z,13.00
2017-09-09T21:33:31.966Z,13.00
2017-09-09T21:35:59.503Z,13.00
2017-09-09T21:38:27.930Z,13.00
2017-09-09T21:40:55.474Z,12.90
2017-09-09T21:43:23.082Z,13.00
2017-09-09T21:45:50.640Z,12.90
2017-09-09T21:48:18.188Z,13.00
2017-09-09T21:50:45.756Z,13.00
2017-09-09T21:53:13.401Z,12.90
2017-09-09T21:55:40.982Z,12.80
2017-09-09T21:58:08.519Z,12.80
2017-09-09T22:00:36.145Z,12.80
2017-09-09T22:03:03.684Z,12.70
2017-09-09T22:05:31.255Z,12.70
2017-09-09T22:07:58.879Z,12.70
2017-09-09T22:10:26.473Z,12.60
2017-09-09T22:12:54.785Z,12.50
2017-09-09T22:15:22.387Z,12.40
2017-09-09T22:17:49.960Z,12.40
2017-09-09T22:20:17.565Z,12.50
2017-09-09T22:22:45.868Z,12.40
2017-09-09T22:25:13.448Z,12.40
2017-09-09T22:27:40.980Z,12.40
2017-09-09T22:30:08.568Z,12.40
2017-09-09T22:32:36.863Z,12.30
2017-09-09T22:35:04.454Z,12.30
2017-09-09T22:37:32.543Z,12.30
2017-09-09T22:40:00.335Z,12.30
2017-09-09T22:42:28.671Z,12.40
2017-09-09T22:44:56.261Z,12.40
2017-09-09T22:47:23.803Z,12.50
2017-09-09T22:49:51.422Z,12.40
2017-09-09T22:52:19.093Z,12.50
2017-09-09T22:54:46.696Z,12.50
2017-09-09T22:57:14.240Z,12.60
2017-09-09T22:59:41.851Z,12.60
2017-09-09T23:02:09.424Z,12.60
2017-09-09T23:04:37.837Z,12.60
2017-09-09T23:07:05.367Z,12.60
2017-09-09T23:09:32.939Z,12.70
2017-09-09T23:12:00.484Z,12.70
2017-09-09T23:14:28.076Z,12.70
2017-09-09T23:16:55.610Z,12.70
2017-09-09T23:19:23.952Z,12.70
2017-09-09T23:21:51.568Z,12.70
2017-09-09T23:24:19.115Z,12.80
2017-09-09T23:26:46.695Z,12.80
2017-09-09T23:29:15.066Z,12.90
2017-09-09T23:31:42.623Z,12.90
2017-09-09T23:34:10.187Z,12.90
2017-09-09T23:36:37.781Z,12.90
2017-09-09T23:39:05.343Z,12.90
2017-09-09T23:41:33.639Z,12.90
2017-09-09T23:44:01.210Z,12.90
2017-09-09T23:46:28.735Z,12.80
2017-09-09T23:48:56.331Z,12.80
2017-09-09T23:51:23.901Z,12.80
2017-09-09T23:53:51.496Z,12.90
2017-09-09T23:56:19.043Z,12.90
2017-09-09T23:58:46.627Z,12.90
